createdAt,value
2022-12-08T00:01:16.351Z,84.58
2022-12-08T00:03:44.417Z,85.42
2022-12-08T00:06:39.724Z,86.33
2022-12-08T00:09:25.766Z,85.34
2022-12-08T00:11:57.366Z,84.90
2022-12-08T00:14:27.345Z,84.51
2022-12-08T00:16:55.055Z,85.95
2022-12-08T00:19:23.775Z,84.43
2022-12-08T00:21:51.832Z,88.88
2022-12-08T00:24:21.757Z,88.07
2022-12-08T00:26:49.591Z,87.78
2022-12-08T00:29:17.791Z,86.47
2022-12-08T00:31:45.591Z,86.25
2022-12-08T00:34:13.695Z,85.30
2022-12-08T00:36:41.264Z,87.99
2022-12-08T00:39:08.885Z,86.08
2022-12-08T00:41:55.257Z,85.85
2022-12-08T00:44:23.052Z,87.65
2022-12-08T00:46:50.792Z,86.40
2022-12-08T00:49:18.799Z,86.30
2022-12-08T00:51:46.438Z,84.87
2022-12-08T00:54:14.154Z,84.51
2022-12-08T00:56:42.896Z,87.42
2022-12-08T00:59:10.871Z,87.58
2022-12-08T01:01:38.461Z,86.56
2022-12-08T01:04:06.559Z,88.87
2022-12-08T01:06:36.207Z,89.03
2022-12-08T01:09:05.968Z,88.76
2022-12-08T01:11:34.136Z,86.99
2022-12-08T01:14:03.473Z,86.65
2022-12-08T01:16:32.702Z,85.30
2022-12-08T01:19:00.970Z,86.88
2022-12-08T01:21:28.975Z,87.48
2022-12-08T01:23:57.962Z,88.25
2022-12-08T01:26:25.410Z,85.91
2022-12-08T01:28:53.404Z,85.16
2022-12-08T01:31:23.656Z,85.07
2022-12-08T01:33:51.768Z,84.16
2022-12-08T01:36:22.187Z,85.64
2022-12-08T01:38:49.664Z,85.21
2022-12-08T01:41:19.577Z,85.00
2022-12-08T01:43:57.197Z,85.71
2022-12-08T01:46:26.993Z,85.66
2022-12-08T01:48:57.831Z,84.46
2022-12-08T01:51:26.270Z,84.99
2022-12-08T01:53:53.996Z,84.62
2022-12-08T01:56:28.180Z,85.42
2022-12-08T01:58:56.909Z,84.54
2022-12-08T02:01:25.794Z,84.91
2022-12-08T02:03:58.772Z,83.82
2022-12-08T02:06:28.122Z,86.05
2022-12-08T02:08:56.063Z,84.83
2022-12-08T02:11:23.599Z,84.81
2022-12-08T02:13:53.115Z,86.00
2022-12-08T02:16:33.937Z,85.89
2022-12-08T02:19:36.330Z,85.60
2022-12-08T02:22:17.713Z,86.60
2022-12-08T02:24:52.025Z,86.58
2022-12-08T02:27:33.609Z,87.69
2022-12-08T02:30:14.042Z,85.41
2022-12-08T02:33:10.397Z,85.02
2022-12-08T02:35:44.824Z,86.25
2022-12-08T02:38:22.522Z,85.93
2022-12-08T02:41:00.853Z,86.30
2022-12-08T02:43:33.369Z,88.19
2022-12-08T02:46:04.365Z,87.17
2022-12-08T02:48:34.090Z,84.90
2022-12-08T02:51:03.086Z,86.29
2022-12-08T02:53:33.916Z,86.21
2022-12-08T02:56:09.606Z,86.03
2022-12-08T02:58:53.974Z,86.25
2022-12-08T03:01:36.192Z,85.73
2022-12-08T03:04:11.151Z,86.43
2022-12-08T03:06:47.501Z,85.40
2022-12-08T03:09:20.808Z,87.00
2022-12-08T03:11:54.260Z,86.43
2022-12-08T03:14:23.542Z,85.32
2022-12-08T03:16:56.262Z,86.50
2022-12-08T03:19:26.676Z,85.55
2022-12-08T03:22:03.280Z,86.26
2022-12-08T03:24:33.704Z,86.31
2022-12-08T03:27:05.055Z,86.22
2022-12-08T03:29:33.737Z,85.68
2022-12-08T03:32:08.729Z,86.10
2022-12-08T03:34:37.646Z,86.50
2022-12-08T03:37:07.033Z,86.07
2022-12-08T03:39:34.480Z,85.23
2022-12-08T03:42:01.864Z,85.00
2022-12-08T03:44:29.256Z,85.55
2022-12-08T03:46:56.646Z,85.69
2022-12-08T03:49:24.119Z,84.58
2022-12-08T03:51:52.077Z,87.22
2022-12-08T03:54:20.846Z,86.73
2022-12-08T03:56:48.271Z,84.29
2022-12-08T03:59:15.653Z,87.91
2022-12-08T04:01:43.090Z,86.92
2022-12-08T04:04:10.543Z,86.66
2022-12-08T04:06:38.430Z,88.29
2022-12-08T04:09:05.814Z,86.99
2022-12-08T04:11:34.602Z,86.26
2022-12-08T04:14:01.994Z,85.58
2022-12-08T04:16:29.532Z,86.86
2022-12-08T04:18:56.991Z,86.75
2022-12-08T04:21:24.375Z,86.14
2022-12-08T04:23:54.954Z,85.83
2022-12-08T04:26:26.670Z,85.32
2022-12-08T04:28:55.387Z,85.60
2022-12-08T04:31:22.860Z,85.20
2022-12-08T04:33:50.340Z,85.25
2022-12-08T04:36:17.787Z,85.64
2022-12-08T04:38:45.220Z,87.69
2022-12-08T04:41:12.851Z,90.91
2022-12-08T04:43:41.095Z,87.18
2022-12-08T04:46:10.300Z,86.98
2022-12-08T04:48:39.178Z,87.40
2022-12-08T04:51:07.341Z,87.34
2022-12-08T04:53:34.778Z,85.79
2022-12-08T04:56:02.194Z,88.81
2022-12-08T04:58:29.620Z,87.00
2022-12-08T05:00:57.059Z,88.99
2022-12-08T05:03:28.660Z,89.19
2022-12-08T05:05:56.466Z,87.69
2022-12-08T05:08:23.912Z,87.94
2022-12-08T05:10:51.361Z,87.21
2022-12-08T05:13:18.807Z,87.14
2022-12-08T05:15:46.288Z,86.64
2022-12-08T05:18:13.748Z,86.47
2022-12-08T05:20:42.491Z,86.59
2022-12-08T05:23:09.881Z,86.40
2022-12-08T05:25:37.281Z,85.97
2022-12-08T05:28:32.950Z,87.07
2022-12-08T05:30:52.867Z,87.85
2022-12-08T05:33:20.281Z,86.58
2022-12-08T05:35:49.014Z,86.29
2022-12-08T05:38:16.485Z,87.51
2022-12-08T05:40:44.302Z,87.52
2022-12-08T05:43:12.024Z,88.03
2022-12-08T05:45:39.635Z,87.56
2022-12-08T05:48:07.141Z,88.12
2022-12-08T05:50:34.518Z,87.29
2022-12-08T05:53:03.217Z,86.72
2022-12-08T05:55:30.636Z,87.41
2022-12-08T05:58:00.795Z,86.55
2022-12-08T06:00:30.786Z,87.00
2022-12-08T06:02:58.260Z,88.22
2022-12-08T06:05:25.739Z,88.07
2022-12-08T06:07:53.176Z,87.01
2022-12-08T06:10:21.919Z,87.24
2022-12-08T06:12:49.353Z,88.95
2022-12-08T06:15:16.841Z,87.27
2022-12-08T06:17:44.237Z,87.79
2022-12-08T06:20:12.023Z,90.37
2022-12-08T06:22:39.631Z,88.42
2022-12-08T06:25:10.115Z,87.61
2022-12-08T06:27:39.109Z,87.52
2022-12-08T06:30:08.044Z,87.27
2022-12-08T06:32:35.495Z,86.85
2022-12-08T06:35:02.972Z,87.51
2022-12-08T06:37:30.353Z,87.67
2022-12-08T06:39:57.748Z,88.62
2022-12-08T06:42:42.939Z,87.73
2022-12-08T06:45:12.835Z,87.05
2022-12-08T06:47:40.344Z,88.48
2022-12-08T06:50:09.710Z,87.84
2022-12-08T06:52:45.671Z,88.65
2022-12-08T06:55:42.732Z,88.26
2022-12-08T06:58:04.722Z,87.23
2022-12-08T07:00:33.435Z,87.53
2022-12-08T07:03:00.881Z,87.28
2022-12-08T07:05:28.258Z,87.68
2022-12-08T07:07:55.677Z,87.76
2022-12-08T07:10:23.095Z,86.87
2022-12-08T07:12:50.458Z,86.79
2022-12-08T07:15:17.984Z,87.48
2022-12-08T07:17:46.828Z,87.70
2022-12-08T07:20:14.413Z,87.77
2022-12-08T07:22:42.124Z,86.56
2022-12-08T07:25:10.049Z,88.75
2022-12-08T07:27:37.434Z,87.31
2022-12-08T07:30:05.901Z,86.71
2022-12-08T07:32:33.477Z,86.88
2022-12-08T07:35:02.231Z,86.06
2022-12-08T07:37:29.618Z,85.87
2022-12-08T07:39:57.041Z,86.04
2022-12-08T07:42:24.713Z,86.64
2022-12-08T07:44:52.207Z,86.97
2022-12-08T07:47:19.598Z,86.71
2022-12-08T07:49:46.993Z,87.97
2022-12-08T07:52:15.730Z,87.31
2022-12-08T07:54:43.117Z,86.27
2022-12-08T07:57:10.883Z,87.74
2022-12-08T07:59:38.578Z,86.86
2022-12-08T08:02:23.448Z,85.67
2022-12-08T08:04:52.818Z,87.41
2022-12-08T08:07:21.623Z,86.28
2022-12-08T08:09:49.085Z,86.22
2022-12-08T08:12:32.795Z,86.72
2022-12-08T08:15:00.948Z,87.56
2022-12-08T08:17:28.988Z,86.89
2022-12-08T08:19:56.898Z,86.38
2022-12-08T08:22:26.211Z,85.65
2022-12-08T08:24:53.764Z,87.13
2022-12-08T08:27:21.178Z,87.13
2022-12-08T08:29:48.618Z,86.27
2022-12-08T08:32:16.127Z,86.42
2022-12-08T08:34:43.634Z,86.23
2022-12-08T08:37:11.060Z,87.16
2022-12-08T08:39:39.805Z,86.28
2022-12-08T08:42:07.328Z,85.72
2022-12-08T08:44:34.762Z,86.72
2022-12-08T08:47:02.167Z,85.49
2022-12-08T08:49:29.594Z,87.28
2022-12-08T08:51:57.104Z,85.88
2022-12-08T08:54:24.490Z,86.32
2022-12-08T08:56:53.557Z,84.71
2022-12-08T08:59:20.986Z,86.71
2022-12-08T09:01:48.472Z,86.22
2022-12-08T09:04:15.973Z,84.90
2022-12-08T09:06:45.195Z,84.51
2022-12-08T09:09:13.078Z,84.11
2022-12-08T09:11:40.559Z,84.87
2022-12-08T09:14:11.810Z,84.89
2022-12-08T09:16:42.435Z,85.40
2022-12-08T09:19:10.436Z,84.88
2022-12-08T09:21:37.835Z,84.97
2022-12-08T09:24:05.550Z,85.65
2022-12-08T09:26:32.993Z,86.75
2022-12-08T09:29:00.454Z,86.48
2022-12-08T09:31:29.207Z,85.51
2022-12-08T09:33:56.660Z,84.68
2022-12-08T09:36:24.042Z,85.34
2022-12-08T09:38:53.651Z,83.73
2022-12-08T09:41:36.467Z,85.81
2022-12-08T09:44:22.449Z,84.83
2022-12-08T09:46:53.432Z,84.26
2022-12-08T09:49:31.491Z,84.27
2022-12-08T09:51:59.380Z,84.48
2022-12-08T09:54:33.381Z,85.42
2022-12-08T09:57:06.580Z,85.07
2022-12-08T09:59:35.886Z,83.30
2022-12-08T10:02:22.162Z,85.00
2022-12-08T10:04:49.698Z,85.75
2022-12-08T10:07:21.693Z,83.50
2022-12-08T10:09:59.431Z,86.60
2022-12-08T10:12:32.159Z,85.94
2022-12-08T10:15:06.648Z,85.45
2022-12-08T10:17:38.524Z,85.41
2022-12-08T10:20:13.818Z,87.45
2022-12-08T10:22:44.755Z,85.56
2022-12-08T10:25:19.036Z,86.46
2022-12-08T10:27:49.569Z,88.72
2022-12-08T10:30:19.550Z,87.13
2022-12-08T10:32:51.127Z,84.87
2022-12-08T10:35:21.155Z,86.18
2022-12-08T10:37:57.885Z,83.96
2022-12-08T10:40:36.959Z,84.47
2022-12-08T10:43:15.960Z,83.42
2022-12-08T10:45:44.044Z,84.27
2022-12-08T10:48:18.744Z,85.37
2022-12-08T10:50:48.389Z,85.28
2022-12-08T10:53:22.177Z,87.74
2022-12-08T10:55:51.763Z,85.10
2022-12-08T10:58:30.830Z,87.02
2022-12-08T11:01:19.344Z,85.13
2022-12-08T11:03:51.163Z,85.81
2022-12-08T11:06:21.582Z,83.83
2022-12-08T11:08:54.094Z,85.80
2022-12-08T11:11:29.064Z,84.62
2022-12-08T11:13:57.326Z,85.28
2022-12-08T11:16:28.682Z,86.47
2022-12-08T11:19:17.434Z,90.27
2022-12-08T11:21:45.461Z,87.52
2022-12-08T11:24:24.942Z,88.08
2022-12-08T11:27:02.939Z,87.54
2022-12-08T11:29:33.669Z,85.75
2022-12-08T11:32:06.685Z,83.85
2022-12-08T11:35:23.695Z,85.81
2022-12-08T11:38:03.054Z,85.72
2022-12-08T11:40:43.745Z,86.45
2022-12-08T11:43:17.400Z,85.87
2022-12-08T11:45:45.435Z,85.14
2022-12-08T11:48:17.676Z,87.70
2022-12-08T11:50:50.796Z,86.20
2022-12-08T11:53:27.340Z,84.14
2022-12-08T11:56:01.799Z,87.58
2022-12-08T11:58:35.816Z,87.02
2022-12-08T12:01:04.924Z,87.64
2022-12-08T12:03:38.914Z,85.68
2022-12-08T12:06:46.653Z,85.53
2022-12-08T12:09:18.457Z,87.38
2022-12-08T12:12:15.956Z,87.39
2022-12-08T12:15:17.226Z,86.54
2022-12-08T12:17:50.064Z,86.59
2022-12-08T12:20:24.930Z,86.36
2022-12-08T12:22:59.710Z,86.69
2022-12-08T12:25:28.871Z,86.44
2022-12-08T12:28:03.294Z,88.92
2022-12-08T12:30:50.921Z,87.27
2022-12-08T12:33:19.497Z,88.54
2022-12-08T12:35:48.861Z,86.84
2022-12-08T12:38:42.105Z,85.73
2022-12-08T12:41:12.060Z,84.63
2022-12-08T12:43:40.105Z,85.95
2022-12-08T12:46:42.011Z,86.29
2022-12-08T12:49:48.650Z,87.54
2022-12-08T12:52:53.193Z,88.03
2022-12-08T12:55:23.695Z,86.21
2022-12-08T12:57:53.991Z,86.20
2022-12-08T13:00:23.082Z,86.80
2022-12-08T13:02:52.078Z,86.57
2022-12-08T13:05:22.948Z,88.41
2022-12-08T13:07:53.532Z,87.38
2022-12-08T13:10:24.264Z,86.53
2022-12-08T13:13:17.190Z,85.59
2022-12-08T13:15:50.616Z,85.46
2022-12-08T13:18:21.731Z,88.06
2022-12-08T13:21:06.553Z,87.30
2022-12-08T13:23:46.364Z,84.61
2022-12-08T13:26:17.419Z,84.75
2022-12-08T13:29:24.505Z,85.13
2022-12-08T13:31:55.263Z,86.23
2022-12-08T13:34:35.371Z,85.37
2022-12-08T13:37:23.108Z,87.10
2022-12-08T13:39:54.590Z,86.69
2022-12-08T13:42:29.150Z,84.66
2022-12-08T13:54:45.506Z,86.00
2022-12-08T13:59:28.302Z,84.36
2022-12-08T14:01:58.109Z,84.36
2022-12-08T14:04:47.841Z,87.67
2022-12-08T14:07:15.876Z,86.31
2022-12-08T14:09:43.834Z,85.34
2022-12-08T14:12:19.777Z,85.23
2022-12-08T14:15:05.192Z,86.38
2022-12-08T14:17:34.127Z,86.52
2022-12-08T14:20:06.424Z,86.42
2022-12-08T14:22:36.233Z,86.29
2022-12-08T14:25:06.049Z,85.47
2022-12-08T14:27:35.907Z,85.33
2022-12-08T14:30:07.292Z,85.20
2022-12-08T14:32:38.742Z,85.88
2022-12-08T14:35:20.923Z,84.05
2022-12-08T14:37:50.975Z,84.75
2022-12-08T14:40:23.880Z,85.05
2022-12-08T14:42:53.543Z,85.37
2022-12-08T14:45:21.776Z,84.34
2022-12-08T14:47:49.571Z,84.82
2022-12-08T14:50:41.779Z,84.92
2022-12-08T14:53:15.429Z,84.65
2022-12-08T14:55:45.808Z,84.70
2022-12-08T14:58:19.743Z,85.65
2022-12-08T15:00:49.048Z,85.21
2022-12-08T15:03:17.738Z,84.75
2022-12-08T15:05:47.018Z,84.66
2022-12-08T15:08:14.487Z,83.81
2022-12-08T15:10:48.110Z,86.07
2022-12-08T15:13:23.754Z,84.92
2022-12-08T15:15:53.996Z,85.39
2022-12-08T15:18:24.800Z,84.78
2022-12-08T15:20:56.847Z,84.79
2022-12-08T15:23:29.611Z,85.59
2022-12-08T15:25:57.970Z,85.76
2022-12-08T15:28:30.019Z,84.24
2022-12-08T15:30:58.832Z,85.73
2022-12-08T15:33:27.159Z,86.44
2022-12-08T15:35:55.927Z,86.37
2022-12-08T15:38:25.761Z,86.01
2022-12-08T15:40:53.592Z,85.64
2022-12-08T15:43:22.173Z,84.51
2022-12-08T15:45:58.487Z,86.23
2022-12-08T15:48:29.220Z,84.67
2022-12-08T15:50:59.199Z,85.66
2022-12-08T15:53:26.998Z,84.34
2022-12-08T15:58:58.665Z,85.48
2022-12-08T16:01:27.355Z,84.82
2022-12-08T16:04:59.823Z,85.13
2022-12-08T16:09:37.048Z,84.62
2022-12-08T16:12:23.101Z,84.97
2022-12-08T16:17:39.474Z,84.69
2022-12-08T16:20:10.042Z,86.17
2022-12-08T16:23:03.734Z,85.17
2022-12-08T16:25:33.340Z,84.52
2022-12-08T16:28:45.201Z,84.53
2022-12-08T16:30:58.710Z,85.97
2022-12-08T16:33:26.208Z,84.79
2022-12-08T16:35:53.735Z,84.96
2022-12-08T16:38:22.503Z,86.44
2022-12-08T16:41:07.843Z,85.91
2022-12-08T16:43:35.625Z,85.85
2022-12-08T16:46:03.671Z,85.71
2022-12-08T16:48:31.392Z,85.93
2022-12-08T16:50:59.487Z,86.65
2022-12-08T16:53:28.225Z,87.23
2022-12-08T16:55:55.751Z,85.52
2022-12-08T16:58:23.206Z,85.43
2022-12-08T17:00:50.643Z,85.75
2022-12-08T17:03:18.510Z,85.35
2022-12-08T17:05:45.906Z,83.71
2022-12-08T17:08:13.998Z,84.43
2022-12-08T17:10:43.054Z,83.92
2022-12-08T17:13:10.795Z,84.35
2022-12-08T17:15:38.246Z,84.38
2022-12-08T17:18:06.048Z,83.83
2022-12-08T17:20:36.119Z,84.30
2022-12-08T17:23:03.488Z,82.80
2022-12-08T17:25:30.902Z,84.69
2022-12-08T17:27:59.702Z,85.33
2022-12-08T17:30:27.184Z,84.89
2022-12-08T17:32:54.624Z,84.29
2022-12-08T17:35:22.053Z,83.61
2022-12-08T17:37:49.564Z,84.85
2022-12-08T17:40:16.967Z,86.17
2022-12-08T17:42:44.794Z,84.72
2022-12-08T17:45:13.688Z,85.47
2022-12-08T17:47:41.157Z,85.98
2022-12-08T17:50:09.565Z,85.30
2022-12-08T17:52:36.961Z,85.90
2022-12-08T17:55:04.703Z,84.23
2022-12-08T17:57:32.157Z,84.01
2022-12-08T17:59:59.620Z,83.70
2022-12-08T18:02:28.948Z,84.26
2022-12-08T18:04:56.482Z,83.04
2022-12-08T18:07:23.908Z,85.82
2022-12-08T18:09:52.311Z,85.65
2022-12-08T18:12:23.631Z,85.23
2022-12-08T18:14:52.263Z,84.48
2022-12-08T18:17:20.613Z,83.90
2022-12-08T18:19:49.455Z,84.73
2022-12-08T18:22:16.889Z,83.89
2022-12-08T18:24:44.790Z,84.61
2022-12-08T18:27:12.219Z,84.45
2022-12-08T18:29:39.962Z,83.96
2022-12-08T18:32:08.503Z,84.79
2022-12-08T18:34:36.187Z,84.01
2022-12-08T18:37:05.210Z,84.89
2022-12-08T18:39:33.949Z,84.78
2022-12-08T18:42:22.596Z,83.81
2022-12-08T18:44:50.407Z,83.71
2022-12-08T18:47:18.269Z,84.96
2022-12-08T18:49:46.051Z,85.82
2022-12-08T18:52:17.826Z,85.47
2022-12-08T18:55:05.637Z,84.99
2022-12-08T18:57:34.154Z,84.61
2022-12-08T19:00:02.520Z,84.16
2022-12-08T19:02:30.180Z,83.87
2022-12-08T19:04:57.870Z,85.20
2022-12-08T19:07:26.607Z,85.48
2022-12-08T19:09:54.128Z,86.12
2022-12-08T19:12:21.562Z,86.30
2022-12-08T19:14:49.062Z,86.70
2022-12-08T19:17:16.483Z,88.42
2022-12-08T19:19:43.914Z,86.79
2022-12-08T19:22:12.325Z,85.82
2022-12-08T19:24:41.262Z,87.34
2022-12-08T19:27:08.698Z,87.68
2022-12-08T19:29:36.123Z,88.20
2022-12-08T19:32:05.092Z,90.27
2022-12-08T19:34:32.655Z,90.25
2022-12-08T19:37:00.085Z,88.24
2022-12-08T19:39:44.905Z,88.06
2022-12-08T19:42:33.997Z,89.03
2022-12-08T19:45:08.761Z,87.55
2022-12-08T19:47:36.246Z,85.95
2022-12-08T19:50:23.202Z,85.79
2022-12-08T19:52:50.808Z,84.92
2022-12-08T19:55:18.279Z,84.56
2022-12-08T19:57:47.303Z,83.80
2022-12-08T20:00:15.717Z,84.97
2022-12-08T20:02:43.316Z,84.92
2022-12-08T20:05:12.361Z,85.31
2022-12-08T20:07:40.490Z,85.02
2022-12-08T20:10:12.605Z,84.76
2022-12-08T20:12:40.114Z,84.72
2022-12-08T20:15:11.187Z,83.85
2022-12-08T20:17:39.178Z,84.63
2022-12-08T20:20:08.853Z,84.90
2022-12-08T20:22:39.055Z,83.60
2022-12-08T20:25:07.397Z,83.11
2022-12-08T20:27:34.926Z,83.19
2022-12-08T20:30:02.567Z,82.97
2022-12-08T20:32:31.450Z,83.93
2022-12-08T20:35:01.119Z,84.27
2022-12-08T20:37:28.520Z,83.70
2022-12-08T20:39:59.083Z,83.20
2022-12-08T20:42:26.735Z,83.53
2022-12-08T20:44:54.199Z,83.70
2022-12-08T20:47:21.893Z,82.85
2022-12-08T20:49:51.498Z,83.08
2022-12-08T20:52:19.068Z,83.51
2022-12-08T20:54:46.776Z,84.03
2022-12-08T20:57:14.496Z,84.29
2022-12-08T20:59:42.088Z,84.77
2022-12-08T21:02:11.336Z,85.86
2022-12-08T21:04:38.973Z,84.46
2022-12-08T21:07:11.547Z,83.09
2022-12-08T21:09:39.251Z,82.28
2022-12-08T21:12:07.286Z,83.42
2022-12-08T21:14:35.114Z,84.79
2022-12-08T21:17:02.780Z,83.82
2022-12-08T21:19:30.418Z,84.25
2022-12-08T21:21:58.085Z,83.59
2022-12-08T21:24:32.141Z,83.18
2022-12-08T21:27:02.557Z,85.02
2022-12-08T21:29:30.201Z,84.77
2022-12-08T21:31:58.786Z,83.82
2022-12-08T21:34:26.960Z,84.60
2022-12-08T21:36:54.506Z,83.84
2022-12-08T21:39:22.250Z,82.85
2022-12-08T21:42:08.634Z,84.35
2022-12-08T21:44:36.305Z,84.61
2022-12-08T21:47:04.035Z,85.34
2022-12-08T21:49:31.711Z,85.22
2022-12-08T21:51:59.510Z,84.13
2022-12-08T21:54:27.118Z,84.96
2022-12-08T21:56:56.180Z,85.28
2022-12-08T21:59:23.638Z,85.16
2022-12-08T22:01:51.521Z,84.52
2022-12-08T22:04:21.389Z,83.47
2022-12-08T22:06:49.725Z,84.27
2022-12-08T22:09:18.065Z,83.40
2022-12-08T22:11:45.940Z,84.20
2022-12-08T22:14:15.465Z,83.09
2022-12-08T22:16:43.762Z,92.02
2022-12-08T22:19:12.079Z,90.58
2022-12-08T22:21:39.871Z,90.09
2022-12-08T22:24:07.895Z,87.75
2022-12-08T22:26:36.768Z,85.83
2022-12-08T22:29:04.529Z,85.17
2022-12-08T22:31:33.584Z,84.60
2022-12-08T22:34:01.259Z,85.12
2022-12-08T22:39:04.736Z,84.07
2022-12-08T22:41:32.944Z,89.67
2022-12-08T22:44:00.564Z,90.69
2022-12-08T22:46:28.630Z,90.65
2022-12-08T22:48:57.551Z,87.13
2022-12-08T22:51:25.170Z,85.32
2022-12-08T22:53:53.077Z,85.02
2022-12-08T22:56:20.800Z,84.70
2022-12-08T22:58:48.398Z,84.30
2022-12-08T23:01:23.650Z,84.15
2022-12-08T23:03:51.180Z,84.10
2022-12-08T23:06:20.394Z,84.49
2022-12-08T23:08:48.347Z,86.43
2022-12-08T23:11:15.944Z,85.36
2022-12-08T23:13:43.787Z,84.87
2022-12-08T23:16:12.732Z,85.13
2022-12-08T23:18:43.040Z,85.59
2022-12-08T23:21:13.834Z,85.79
2022-12-08T23:23:43.214Z,85.64
2022-12-08T23:26:17.989Z,85.78
2022-12-08T23:28:45.730Z,93.11
2022-12-08T23:31:13.855Z,89.48
2022-12-08T23:33:41.736Z,88.86
2022-12-08T23:36:10.680Z,86.56
2022-12-08T23:38:38.625Z,86.49
2022-12-08T23:41:09.293Z,86.29
2022-12-08T23:43:36.939Z,86.12
2022-12-08T23:46:05.386Z,86.36
2022-12-08T23:48:34.701Z,85.26
2022-12-08T23:51:02.868Z,85.66
2022-12-08T23:53:30.691Z,85.95
2022-12-08T23:56:01.966Z,87.40
2022-12-08T23:58:32.899Z,85.99
